Time;durP1;ratioP1;P1;durP2;ratioP2;P2;SDS_P1;SDS_P2;PMS_P1;PMS_P2;Temp;Humidity;BMP_temperature;BMP_pressure;BME280_temperature;BME280_humidity;BME280_pressure;Samples;Min_cycle;Max_cycle;Signal;HPM_P1;HPM_P2
2023/02/11 00:01:13;;;;;;;13.32;5.80;;;8.30;99.90;;;;;;5029249;28;20591;-62
2023/02/11 00:03:40;;;;;;;7.57;4.72;;;8.30;99.90;;;;;;5012234;28;20073;-62
2023/02/11 00:06:10;;;;;;;9.30;5.32;;;8.30;99.90;;;;;;5028726;28;20052;-62
2023/02/11 00:08:37;;;;;;;8.68;5.95;;;8.30;99.90;;;;;;5028464;28;20041;-61
2023/02/11 00:11:04;;;;;;;10.18;5.35;;;8.30;99.90;;;;;;5028804;28;20045;-62
2023/02/11 00:13:30;;;;;;;13.07;6.43;;;8.30;99.90;;;;;;5010908;28;20049;-62
2023/02/11 00:15:57;;;;;;;9.27;5.75;;;8.30;99.90;;;;;;5029757;28;20059;-63
2023/02/11 00:18:24;;;;;;;13.65;6.47;;;8.30;99.90;;;;;;5030447;28;20125;-62
2023/02/11 00:20:51;;;;;;;9.93;6.22;;;8.40;99.90;;;;;;5012539;28;20053;-59
2023/02/11 00:23:17;;;;;;;11.82;6.40;;;8.40;99.90;;;;;;5029970;28;20060;-62
2023/02/11 00:25:44;;;;;;;9.55;6.05;;;8.30;99.90;;;;;;5029954;28;20049;-65
2023/02/11 00:28:11;;;;;;;12.60;6.85;;;8.30;99.90;;;;;;5030345;28;20092;-62
2023/02/11 00:30:38;;;;;;;13.82;5.97;;;8.30;99.90;;;;;;5029761;28;20511;-61
2023/02/11 00:33:05;;;;;;;10.23;5.78;;;8.30;99.90;;;;;;5030328;28;20103;-62
2023/02/11 00:35:31;;;;;;;11.23;6.10;;;8.30;99.90;;;;;;5029617;28;20512;-62
2023/02/11 00:37:58;;;;;;;9.75;6.38;;;8.20;99.90;;;;;;5030447;28;20152;-62
2023/02/11 00:40:25;;;;;;;9.68;5.85;;;8.30;99.90;;;;;;5012109;28;20174;-61
2023/02/11 00:42:52;;;;;;;8.45;5.43;;;8.30;99.90;;;;;;5030130;28;20424;-61
2023/02/11 00:45:20;;;;;;;12.43;5.70;;;8.30;99.90;;;;;;5029507;28;20136;-63
2023/02/11 00:47:47;;;;;;;12.32;5.10;;;8.30;99.90;;;;;;5030139;28;20057;-62
2023/02/11 00:50:13;;;;;;;9.30;5.35;;;8.30;99.90;;;;;;5030068;28;20046;-62
2023/02/11 00:52:40;;;;;;;8.15;5.60;;;8.30;99.90;;;;;;5030124;28;20132;-63
2023/02/11 00:55:07;;;;;;;7.72;4.90;;;8.30;99.90;;;;;;5029408;28;20120;-63
2023/02/11 00:57:34;;;;;;;8.75;5.13;;;8.30;99.90;;;;;;5029927;28;20057;-64
2023/02/11 01:00:01;;;;;;;15.32;6.07;;;8.30;99.90;;;;;;5029638;28;20512;-63
2023/02/11 01:02:27;;;;;;;9.43;5.65;;;8.30;99.90;;;;;;5019108;28;20408;-62
2023/02/11 01:04:54;;;;;;;8.50;5.53;;;8.30;99.90;;;;;;5029545;28;20041;-63
2023/02/11 01:07:21;;;;;;;10.98;5.00;;;8.30;99.90;;;;;;5017663;28;20088;-63
2023/02/11 01:09:48;;;;;;;8.30;6.28;;;8.30;99.90;;;;;;5029421;28;20047;-62
2023/02/11 01:12:15;;;;;;;13.63;5.70;;;8.30;99.90;;;;;;5029451;28;20365;-62
2023/02/11 01:14:42;;;;;;;8.73;5.75;;;8.30;99.90;;;;;;5029288;28;20055;-63
2023/02/11 01:17:09;;;;;;;9.00;6.40;;;8.30;99.90;;;;;;5029196;28;20065;-62
2023/02/11 01:19:36;;;;;;;6.85;5.45;;;8.30;99.90;;;;;;5029347;28;20128;-62
2023/02/11 01:22:03;;;;;;;9.15;5.53;;;8.30;99.90;;;;;;5029017;28;20132;-63
2023/02/11 01:24:30;;;;;;;8.13;6.13;;;8.30;99.90;;;;;;5009681;28;20049;-62
2023/02/11 01:26:57;;;;;;;11.43;6.32;;;8.30;99.90;;;;;;5024486;28;20149;-63
2023/02/11 01:29:24;;;;;;;10.68;5.78;;;8.20;99.90;;;;;;5029670;28;20049;-62
2023/02/11 01:31:51;;;;;;;11.38;6.50;;;8.20;99.90;;;;;;5028703;28;20129;-62
2023/02/11 01:34:18;;;;;;;12.15;6.85;;;8.20;99.90;;;;;;5029318;28;20080;-63
2023/02/11 01:36:44;;;;;;;8.93;5.85;;;8.20;99.90;;;;;;5028421;28;20049;-62
2023/02/11 01:39:11;;;;;;;13.90;7.30;;;8.20;99.90;;;;;;5028950;28;20045;-62
2023/02/11 01:41:38;;;;;;;12.15;6.70;;;8.20;99.90;;;;;;5028611;28;20144;-63
2023/02/11 01:44:40;;;;;;;11.60;7.55;;;8.20;99.90;;;;;;5028657;28;20049;-63
2023/02/11 01:47:07;;;;;;;9.90;6.53;;;8.20;99.90;;;;;;4947422;28;20061;-62
2023/02/11 01:49:36;;;;;;;13.77;8.13;;;8.20;99.90;;;;;;4990359;28;20048;-62
2023/02/11 01:52:11;;;;;;;11.23;7.15;;;8.30;99.90;;;;;;5008708;28;20133;-62
2023/02/11 01:57:29;;;;;;;12.30;7.20;;;8.20;99.90;;;;;;5007463;28;20050;-62
2023/02/11 02:00:23;;;;;;;10.10;7.05;;;8.20;99.90;;;;;;5009233;28;20065;-61
2023/02/11 02:02:56;;;;;;;13.23;7.55;;;8.20;99.90;;;;;;5007000;28;20553;-61
2023/02/11 02:05:44;;;;;;;9.25;7.07;;;8.20;99.90;;;;;;5004516;28;20053;-62
2023/02/11 02:08:46;;;;;;;12.38;7.50;;;8.30;99.90;;;;;;4991006;28;20125;-62
2023/02/11 02:11:13;;;;;;;12.40;7.85;;;8.30;99.90;;;;;;4959137;28;20125;-63
2023/02/11 02:13:40;;;;;;;10.77;6.93;;;8.20;99.90;;;;;;5002982;28;20050;-61
2023/02/11 02:16:13;;;;;;;13.90;8.05;;;8.20;99.90;;;;;;5008361;28;20054;-62
2023/02/11 02:19:01;;;;;;;10.83;7.63;;;8.20;99.90;;;;;;5007265;28;20049;-63
2023/02/11 02:22:05;;;;;;;13.25;7.50;;;8.20;99.90;;;;;;5003051;28;20045;-62
2023/02/11 02:24:58;;;;;;;12.98;8.77;;;8.20;99.90;;;;;;5008317;28;20081;-63
2023/02/11 02:27:44;;;;;;;10.55;7.10;;;8.20;99.90;;;;;;5008242;28;20405;-63
2023/02/11 02:30:38;;;;;;;11.60;7.38;;;8.30;99.90;;;;;;5005851;28;20046;-63
2023/02/11 02:33:14;;;;;;;10.40;7.40;;;8.30;99.90;;;;;;5007939;28;20038;-62
2023/02/11 02:36:02;;;;;;;9.57;7.07;;;8.30;99.90;;;;;;4998417;28;20050;-63
2023/02/11 02:38:57;;;;;;;11.40;7.53;;;8.30;99.90;;;;;;5007990;28;20108;-62
2023/02/11 02:41:31;;;;;;;10.75;7.13;;;8.30;99.90;;;;;;5008229;28;20476;-63
2023/02/11 02:43:58;;;;;;;;;;;8.30;99.90;;;;;;4990811;28;20128;-62
2023/02/11 02:46:29;;;;;;;11.57;7.03;;;8.30;99.90;;;;;;5010256;28;19921;-63
2023/02/11 02:48:57;;;;;;;11.93;7.47;;;8.30;99.90;;;;;;5010015;28;20057;-63
2023/02/11 02:51:26;;;;;;;11.90;6.93;;;8.30;99.90;;;;;;5027968;28;20045;-62
2023/02/11 02:53:59;;;;;;;12.50;7.57;;;8.30;99.90;;;;;;5027618;28;20072;-63
2023/02/11 02:56:44;;;;;;;13.07;7.50;;;8.30;99.90;;;;;;5027931;28;20132;-63
2023/02/11 02:59:13;;;;;;;14.00;8.15;;;8.40;99.90;;;;;;5027494;28;20132;-62
2023/02/11 03:01:55;;;;;;;12.30;7.65;;;8.40;99.90;;;;;;5009514;28;20167;-63
2023/02/11 03:04:40;;;;;;;12.70;8.18;;;8.30;99.90;;;;;;5027637;28;20100;-63
2023/02/11 03:07:34;;;;;;;11.48;8.30;;;8.40;99.90;;;;;;5009849;28;20064;-63
2023/02/11 03:10:13;;;;;;;11.73;7.97;;;8.40;99.90;;;;;;5027582;28;20045;-63
2023/02/11 03:12:39;;;;;;;14.82;8.60;;;8.40;99.90;;;;;;4994758;28;20045;-63
2023/02/11 03:15:07;;;;;;;11.70;7.72;;;8.40;99.90;;;;;;4990135;28;20045;-62
2023/02/11 03:17:34;;;;;;;14.07;9.95;;;8.30;99.90;;;;;;5009894;28;20060;-63
2023/02/11 03:20:01;;;;;;;10.88;7.97;;;8.30;99.90;;;;;;5009779;28;20050;-63
2023/02/11 03:22:38;;;;;;;11.85;8.70;;;8.40;99.90;;;;;;5010113;28;20075;-63
2023/02/11 03:25:05;;;;;;;13.07;8.38;;;8.30;99.90;;;;;;5009443;28;20431;-63
2023/02/11 03:27:37;;;;;;;14.70;8.63;;;8.20;99.90;;;;;;4993617;28;20160;-63
2023/02/11 03:30:19;;;;;;;11.32;7.80;;;8.30;99.90;;;;;;4993713;28;20045;-63
2023/02/11 03:32:51;;;;;;;15.32;9.35;;;8.30;99.90;;;;;;4995499;28;20053;-63
2023/02/11 03:35:31;;;;;;;12.75;8.23;;;8.30;99.90;;;;;;5009548;28;20096;-63
2023/02/11 03:38:29;;;;;;;12.05;8.02;;;8.40;99.90;;;;;;4990197;28;20046;-63
2023/02/11 03:40:56;;;;;;;13.20;7.20;;;8.40;99.90;;;;;;4996230;28;20129;-62
2023/02/11 03:43:32;;;;;;;12.70;8.40;;;8.30;99.90;;;;;;5010834;28;20068;-63
2023/02/11 03:45:59;;;;;;;13.55;8.75;;;8.40;99.90;;;;;;4994935;28;20048;-63
2023/02/11 03:48:34;;;;;;;17.60;9.10;;;8.30;99.90;;;;;;4987881;28;20078;-63
2023/02/11 03:51:01;;;;;;;13.30;9.30;;;8.30;99.90;;;;;;5004492;28;20045;-62
2023/02/11 03:53:28;;;;;;;14.35;9.65;;;8.30;99.90;;;;;;4999178;28;20049;-63
2023/02/11 03:55:55;;;;;;;14.70;10.38;;;8.30;99.90;;;;;;5006329;28;20548;-63
2023/02/11 03:58:22;;;;;;;12.93;9.30;;;8.30;99.90;;;;;;5005356;28;20062;-61
2023/02/11 04:00:51;;;;;;;15.82;9.57;;;8.30;99.90;;;;;;5007068;28;20400;-63
2023/02/11 04:03:18;;;;;;;12.85;8.70;;;8.30;99.90;;;;;;5007362;28;20100;-61
2023/02/11 04:05:45;;;;;;;13.20;8.35;;;8.30;99.90;;;;;;5002833;28;20050;-62
2023/02/11 04:08:12;;;;;;;13.10;8.88;;;8.30;99.90;;;;;;5003709;28;20054;-62
2023/02/11 04:10:39;;;;;;;14.02;8.70;;;8.30;99.90;;;;;;5007502;28;20057;-62
2023/02/11 04:13:05;;;;;;;13.57;9.05;;;8.40;99.90;;;;;;5008833;28;20180;-62
2023/02/11 04:15:32;;;;;;;14.75;8.43;;;8.30;99.90;;;;;;5010756;28;20053;-63
2023/02/11 04:17:59;;;;;;;15.73;9.15;;;8.30;99.90;;;;;;5010568;28;20050;-62
2023/02/11 04:20:25;;;;;;;14.77;8.45;;;8.30;99.90;;;;;;5010946;28;20056;-63
2023/02/11 04:22:52;;;;;;;16.13;9.23;;;8.30;99.90;;;;;;5009142;28;20050;-62
2023/02/11 04:25:19;;;;;;;13.90;8.50;;;8.30;99.90;;;;;;5010594;28;20552;-62
2023/02/11 04:27:46;;;;;;;13.18;8.57;;;8.30;99.90;;;;;;5010085;28;20052;-62
2023/02/11 04:30:13;;;;;;;13.00;8.93;;;8.30;99.90;;;;;;5010614;28;20046;-62
2023/02/11 04:32:39;;;;;;;12.50;8.82;;;8.40;99.90;;;;;;5010361;28;20503;-62
2023/02/11 04:35:06;;;;;;;12.65;8.77;;;8.30;99.90;;;;;;5010596;28;20065;-62
2023/02/11 04:37:34;;;;;;;17.02;8.38;;;8.30;99.90;;;;;;5010237;28;20085;-63
2023/02/11 04:40:01;;;;;;;13.13;8.73;;;8.30;99.90;;;;;;5010530;28;20050;-62
2023/02/11 04:42:27;;;;;;;11.07;8.10;;;8.30;99.90;;;;;;5010063;28;20144;-62
2023/02/11 04:44:54;;;;;;;13.52;8.65;;;8.30;99.90;;;;;;5010746;28;20113;-63
2023/02/11 04:47:21;;;;;;;11.90;7.45;;;8.30;99.90;;;;;;5020115;28;20055;-62
2023/02/11 04:49:48;;;;;;;13.63;7.57;;;8.30;99.90;;;;;;5029876;28;20042;-62
2023/02/11 04:52:14;;;;;;;14.15;8.27;;;8.30;99.90;;;;;;5012020;28;20196;-61
2023/02/11 04:54:41;;;;;;;10.73;7.53;;;8.30;99.90;;;;;;5029751;28;20046;-62
2023/02/11 04:57:08;;;;;;;12.30;7.18;;;8.40;99.90;;;;;;5030122;28;20053;-61
2023/02/11 04:59:34;;;;;;;13.68;6.95;;;8.40;99.90;;;;;;4999803;28;20049;-62
2023/02/11 05:02:02;;;;;;;11.23;7.18;;;8.40;99.90;;;;;;5029804;28;20053;-61
2023/02/11 05:04:29;;;;;;;12.25;8.15;;;8.40;99.90;;;;;;5029407;28;20103;-62
2023/02/11 05:06:56;;;;;;;11.60;7.72;;;8.40;99.90;;;;;;5029652;28;20049;-61
2023/02/11 05:09:24;;;;;;;10.48;7.65;;;8.40;99.90;;;;;;5029471;28;20060;-62
2023/02/11 05:11:51;;;;;;;11.13;6.93;;;8.40;99.90;;;;;;5029735;28;20095;-61
2023/02/11 05:14:18;;;;;;;11.38;8.43;;;8.40;99.90;;;;;;5029367;28;20045;-62
2023/02/11 05:16:44;;;;;;;9.55;6.82;;;8.40;99.90;;;;;;5030044;28;20048;-62
2023/02/11 05:19:11;;;;;;;10.05;7.05;;;8.40;99.90;;;;;;5029216;28;20050;-61
2023/02/11 05:21:38;;;;;;;8.18;6.15;;;8.40;99.90;;;;;;5029222;28;20075;-62
2023/02/11 05:24:09;;;;;;;10.35;6.60;;;8.40;99.90;;;;;;5028193;28;20045;-62
2023/02/11 05:26:36;;;;;;;10.40;6.45;;;8.40;99.90;;;;;;5029558;28;20136;-62
2023/02/11 05:29:02;;;;;;;11.57;6.00;;;8.40;99.90;;;;;;5028948;28;20075;-61
2023/02/11 05:31:29;;;;;;;9.70;6.53;;;8.40;99.90;;;;;;5028965;28;20049;-61
2023/02/11 05:33:56;;;;;;;10.05;6.00;;;8.40;99.90;;;;;;5028933;28;20049;-62
2023/02/11 05:36:22;;;;;;;11.27;5.95;;;8.40;99.90;;;;;;5029248;28;20072;-63
2023/02/11 05:38:49;;;;;;;12.90;8.88;;;8.40;99.90;;;;;;5010708;28;20045;-62
2023/02/11 05:41:16;;;;;;;9.05;5.47;;;8.40;99.90;;;;;;5029150;28;20125;-62
2023/02/11 05:43:43;;;;;;;9.25;6.13;;;8.40;99.90;;;;;;5029102;28;20145;-62
2023/02/11 05:46:09;;;;;;;10.25;5.72;;;8.40;99.90;;;;;;5028223;28;20045;-62
2023/02/11 05:48:36;;;;;;;7.05;5.40;;;8.40;99.90;;;;;;5028938;28;20513;-61
2023/02/11 05:51:03;;;;;;;11.77;5.68;;;8.40;99.90;;;;;;5010912;28;20041;-61
2023/02/11 05:53:30;;;;;;;10.90;6.53;;;8.40;99.90;;;;;;5028896;28;20067;-61
2023/02/11 05:55:57;;;;;;;11.50;5.28;;;8.40;99.90;;;;;;5028770;28;20049;-61
2023/02/11 05:58:23;;;;;;;11.77;5.35;;;8.40;99.90;;;;;;5029134;28;20114;-60
2023/02/11 06:00:50;;;;;;;6.82;5.10;;;8.40;99.90;;;;;;5028646;28;20041;-62
2023/02/11 06:03:17;;;;;;;12.52;6.18;;;8.40;99.90;;;;;;5028747;28;20054;-63
2023/02/11 06:05:45;;;;;;;10.27;4.93;;;8.40;99.90;;;;;;5028461;28;20046;-62
2023/02/11 06:08:11;;;;;;;9.20;4.97;;;8.40;99.90;;;;;;5028191;28;20069;-62
2023/02/11 06:10:41;;;;;;;11.25;5.15;;;8.40;99.90;;;;;;5028247;28;20049;-62
2023/02/11 06:13:07;;;;;;;7.35;4.43;;;8.40;99.90;;;;;;5026109;28;20080;-62
2023/02/11 06:15:34;;;;;;;11.75;5.68;;;8.40;99.90;;;;;;5028020;28;20072;-63
2023/02/11 06:18:01;;;;;;;10.85;5.63;;;8.50;99.90;;;;;;4990469;28;20536;-62
2023/02/11 06:20:28;;;;;;;9.63;4.72;;;8.50;99.90;;;;;;5010169;28;20045;-63
2023/02/11 06:22:55;;;;;;;9.98;5.00;;;8.50;99.90;;;;;;5027068;28;20063;-62
2023/02/11 06:25:22;;;;;;;7.18;4.97;;;8.50;99.90;;;;;;5027666;28;20128;-62
2023/02/11 06:27:48;;;;;;;8.93;5.28;;;8.50;99.90;;;;;;5027822;28;20133;-63
2023/02/11 06:30:15;;;;;;;10.27;5.10;;;8.40;99.90;;;;;;5028214;28;20051;-63
2023/02/11 06:32:42;;;;;;;11.25;5.18;;;8.40;99.90;;;;;;5027750;28;20053;-63
2023/02/11 06:35:12;;;;;;;9.55;5.05;;;8.40;99.90;;;;;;5028110;28;20049;-62
2023/02/11 06:37:39;;;;;;;11.80;5.32;;;8.50;99.90;;;;;;5027483;28;20080;-61
2023/02/11 06:40:06;;;;;;;10.45;5.50;;;8.50;99.90;;;;;;5027861;28;20501;-61
2023/02/11 06:42:34;;;;;;;8.68;5.28;;;8.50;99.90;;;;;;5027509;28;20527;-61
2023/02/11 06:45:04;;;;;;;11.70;5.32;;;8.50;99.90;;;;;;5028017;28;20126;-61
2023/02/11 06:47:31;;;;;;;12.23;5.30;;;8.50;99.90;;;;;;5027076;28;20061;-62
2023/02/11 06:49:58;;;;;;;11.68;5.10;;;8.50;99.90;;;;;;5027730;28;20132;-63
2023/02/11 06:52:25;;;;;;;9.15;4.57;;;8.50;99.90;;;;;;5009965;28;20455;-62
2023/02/11 06:54:52;;;;;;;8.77;5.78;;;8.50;99.90;;;;;;5027521;28;20607;-62
2023/02/11 06:57:18;;;;;;;8.65;4.53;;;8.50;99.90;;;;;;5027688;28;20124;-60
2023/02/11 06:59:45;;;;;;;9.68;5.00;;;8.50;99.90;;;;;;5027859;28;20141;-62
2023/02/11 07:02:12;;;;;;;13.65;4.45;;;8.40;99.90;;;;;;5027175;28;20420;-62
2023/02/11 07:04:39;;;;;;;11.15;5.18;;;8.50;99.90;;;;;;5027310;28;20132;-62
2023/02/11 07:07:05;;;;;;;11.18;5.20;;;8.40;99.90;;;;;;5009420;28;20076;-62
2023/02/11 07:09:32;;;;;;;13.55;4.82;;;8.50;99.90;;;;;;5009683;28;20075;-61
2023/02/11 07:11:59;;;;;;;13.05;4.90;;;8.50;99.90;;;;;;5027373;28;20271;-62
2023/02/11 07:14:26;;;;;;;14.13;5.18;;;8.50;99.90;;;;;;5026999;28;20089;-61
2023/02/11 07:16:52;;;;;;;8.25;4.15;;;8.50;99.90;;;;;;5027259;28;20049;-62
2023/02/11 07:19:19;;;;;;;8.25;4.80;;;8.50;99.90;;;;;;5026999;28;20053;-62
2023/02/11 07:21:47;;;;;;;8.02;4.68;;;8.50;99.90;;;;;;5026847;28;20045;-62
2023/02/11 07:24:14;;;;;;;8.82;4.13;;;8.50;99.90;;;;;;5026960;28;20152;-62
2023/02/11 07:26:41;;;;;;;7.75;4.13;;;8.50;99.90;;;;;;5009521;28;20048;-62
2023/02/11 07:29:07;;;;;;;7.45;4.28;;;8.50;99.90;;;;;;5027195;28;20050;-62
2023/02/11 07:31:34;;;;;;;10.00;4.32;;;8.50;99.90;;;;;;5027133;28;20049;-62
2023/02/11 07:34:01;;;;;;;10.23;4.07;;;8.60;99.90;;;;;;5027035;28;20048;-62
2023/02/11 07:36:29;;;;;;;10.18;4.40;;;8.50;99.90;;;;;;5026771;28;20071;-61
2023/02/11 07:38:56;;;;;;;15.02;4.85;;;8.50;99.90;;;;;;5026790;28;20136;-62
2023/02/11 07:41:23;;;;;;;7.78;3.53;;;8.60;99.90;;;;;;5027054;28;20072;-61
2023/02/11 07:43:50;;;;;;;7.60;4.55;;;8.60;99.90;;;;;;5026678;28;20045;-62
2023/02/11 07:46:19;;;;;;;9.50;3.85;;;8.50;99.90;;;;;;5026994;28;20084;-61
2023/02/11 07:48:46;;;;;;;9.27;3.42;;;8.60;99.90;;;;;;5008834;28;20532;-60
2023/02/11 07:51:17;;;;;;;10.45;3.72;;;8.60;99.90;;;;;;5011507;28;20125;-62
2023/02/11 07:53:44;;;;;;;8.00;3.35;;;8.60;99.90;;;;;;5011246;28;20507;-63
2023/02/11 07:56:12;;;;;;;7.05;3.75;;;8.60;99.90;;;;;;5009841;28;20129;-63
2023/02/11 07:58:40;;;;;;;10.57;3.65;;;8.60;99.90;;;;;;5009932;28;20140;-63
2023/02/11 08:01:16;;;;;;;10.38;3.72;;;8.60;99.90;;;;;;5010878;28;20567;-62
2023/02/11 08:03:43;;;;;;;9.20;3.67;;;8.60;99.90;;;;;;5009692;28;20104;-62
2023/02/11 08:06:11;;;;;;;6.65;3.72;;;8.60;99.90;;;;;;5011346;28;20077;-64
2023/02/11 08:08:38;;;;;;;6.82;3.25;;;8.60;99.90;;;;;;5009908;28;20473;-62
2023/02/11 08:11:09;;;;;;;5.40;3.40;;;8.60;99.90;;;;;;5010638;28;20042;-62
2023/02/11 08:13:36;;;;;;;9.82;3.65;;;8.60;99.90;;;;;;5009797;28;20238;-65
2023/02/11 08:16:03;;;;;;;7.18;2.80;;;8.60;99.90;;;;;;5009115;28;20076;-61
2023/02/11 08:18:31;;;;;;;6.55;3.97;;;8.60;99.90;;;;;;5010859;28;20053;-63
2023/02/11 08:21:07;;;;;;;8.35;2.92;;;8.70;99.90;;;;;;5010876;28;20049;-61
2023/02/11 08:23:38;;;;;;;5.80;2.67;;;8.60;99.90;;;;;;5006286;28;20076;-63
2023/02/11 08:26:06;;;;;;;7.22;2.22;;;8.70;99.90;;;;;;5011445;28;20050;-62
2023/02/11 08:28:37;;;;;;;4.22;2.60;;;8.70;99.90;;;;;;5011399;28;20053;-62
2023/02/11 08:31:05;;;;;;;6.30;3.13;;;8.80;99.90;;;;;;5013068;28;20048;-63
2023/02/11 08:33:33;;;;;;;11.52;3.60;;;8.80;99.90;;;;;;5010557;28;20050;-63
2023/02/11 08:36:00;;;;;;;6.97;2.60;;;8.80;99.90;;;;;;5009613;28;20050;-63
2023/02/11 08:38:27;;;;;;;7.85;2.90;;;8.80;99.90;;;;;;4661584;28;10000488;-64
2023/02/11 08:40:54;;;;;;;8.02;2.50;;;8.90;99.90;;;;;;5007142;28;20053;-62
2023/02/11 08:43:22;;;;;;;9.48;2.53;;;8.90;99.90;;;;;;5007284;28;20089;-64
2023/02/11 08:45:48;;;;;;;6.35;2.45;;;8.90;99.90;;;;;;5002230;28;20042;-62
2023/02/11 08:48:16;;;;;;;3.78;2.28;;;8.90;99.90;;;;;;5018893;28;20065;-64
2023/02/11 08:50:42;;;;;;;5.85;1.92;;;9.00;99.90;;;;;;5009440;28;20044;-61
2023/02/11 08:53:09;;;;;;;4.22;2.03;;;9.00;99.90;;;;;;5027402;28;20152;-60
2023/02/11 08:55:36;;;;;;;3.25;1.67;;;9.10;99.90;;;;;;5026543;28;20064;-60
2023/02/11 08:58:03;;;;;;;4.60;1.90;;;9.10;99.90;;;;;;5026774;28;20072;-60
2023/02/11 09:00:29;;;;;;;5.72;2.40;;;9.20;99.90;;;;;;5025243;28;20131;-60
2023/02/11 09:02:56;;;;;;;7.05;2.72;;;9.20;99.90;;;;;;5026585;28;20056;-59
2023/02/11 09:05:23;;;;;;;6.20;2.33;;;9.20;99.90;;;;;;5027273;28;20049;-60
2023/02/11 09:07:50;;;;;;;8.75;2.63;;;9.20;99.90;;;;;;5026760;28;20053;-61
2023/02/11 09:10:17;;;;;;;5.20;2.10;;;9.20;99.90;;;;;;5026738;28;20057;-60
2023/02/11 09:12:43;;;;;;;3.60;1.77;;;9.20;99.90;;;;;;5008580;28;20061;-60
2023/02/11 09:15:10;;;;;;;3.67;1.90;;;9.20;99.90;;;;;;5028877;28;20049;-59
2023/02/11 09:17:37;;;;;;;6.07;2.17;;;9.20;99.90;;;;;;5029204;28;20469;-60
2023/02/11 09:20:04;;;;;;;6.05;2.30;;;9.30;99.90;;;;;;5029109;28;20103;-60
2023/02/11 09:22:30;;;;;;;6.43;2.53;;;9.30;99.90;;;;;;5026434;28;20053;-60
2023/02/11 09:24:57;;;;;;;5.80;2.20;;;9.40;99.90;;;;;;5026664;28;20159;-60
2023/02/11 09:27:24;;;;;;;3.67;1.70;;;9.40;99.90;;;;;;5008912;28;20135;-60
2023/02/11 09:29:51;;;;;;;4.03;2.08;;;9.40;99.90;;;;;;5026599;28;20051;-59
2023/02/11 09:32:17;;;;;;;8.27;2.20;;;9.40;99.90;;;;;;5028161;28;20042;-59
2023/02/11 09:34:44;;;;;;;3.92;2.03;;;9.40;99.90;;;;;;5027108;28;20049;-61
2023/02/11 09:37:11;;;;;;;3.70;1.90;;;9.50;99.90;;;;;;5026488;28;20048;-58
2023/02/11 09:39:38;;;;;;;5.53;2.35;;;9.50;99.90;;;;;;5026938;28;20047;-57
2023/02/11 09:42:31;;;;;;;8.50;2.05;;;9.50;99.90;;;;;;5009275;28;20256;-56
2023/02/11 09:45:00;;;;;;;4.55;1.50;;;9.60;99.90;;;;;;5002077;28;20053;-58
2023/02/11 09:47:32;;;;;;;7.47;1.73;;;9.60;99.90;;;;;;5027877;28;20056;-56
2023/02/11 09:50:04;;;;;;;3.30;1.70;;;9.60;99.90;;;;;;5010514;28;20053;-58
2023/02/11 09:52:40;;;;;;;11.23;1.80;;;9.60;99.90;;;;;;5008579;28;20132;-63
2023/02/11 09:55:21;;;;;;;6.28;2.33;;;9.60;99.90;;;;;;5025135;28;20614;-58
2023/02/11 09:57:48;;;;;;;9.93;1.70;;;9.60;99.90;;;;;;5008092;28;20049;-58
2023/02/11 10:00:18;;;;;;;2.55;1.20;;;9.70;99.90;;;;;;5008644;28;20071;-58
2023/02/11 10:03:07;;;;;;;8.13;2.83;;;9.70;99.90;;;;;;5008795;28;20480;-59
2023/02/11 10:06:06;;;;;;;4.38;1.27;;;9.70;99.90;;;;;;5015960;28;20057;-60
2023/02/11 10:08:39;;;;;;;4.30;1.92;;;9.70;99.90;;;;;;5012989;28;20092;-59
2023/02/11 10:11:32;;;;;;;5.88;1.27;;;9.70;99.90;;;;;;5010212;28;20045;-58
2023/02/11 10:14:35;;;;;;;2.95;1.35;;;9.80;99.90;;;;;;5024269;28;20047;-59
2023/02/11 10:17:28;;;;;;;6.38;1.70;;;9.80;99.90;;;;;;5027894;28;20060;-59
2023/02/11 10:20:15;;;;;;;4.75;1.80;;;9.90;99.90;;;;;;5001502;28;20136;-59
2023/02/11 10:23:02;;;;;;;3.38;1.20;;;9.90;99.90;;;;;;5009378;28;20493;-59
2023/02/11 10:25:41;;;;;;;5.30;2.05;;;10.00;99.90;;;;;;5009933;28;20064;-59
2023/02/11 10:28:16;;;;;;;4.45;2.00;;;10.00;99.90;;;;;;5011858;28;20087;-59
2023/02/11 10:30:51;;;;;;;6.25;1.83;;;10.00;99.90;;;;;;5027877;28;20072;-58
2023/02/11 10:33:31;;;;;;;3.50;1.20;;;9.90;99.90;;;;;;5010458;28;20133;-59
2023/02/11 10:35:58;;;;;;;3.55;1.40;;;9.90;99.90;;;;;;5026712;28;20132;-60
2023/02/11 10:38:25;;;;;;;4.90;2.03;;;9.90;99.90;;;;;;5010498;28;20053;-60
2023/02/11 10:40:52;;;;;;;7.55;1.77;;;9.90;99.90;;;;;;5010225;28;20120;-59
2023/02/11 10:43:21;;;;;;;5.55;1.42;;;10.00;99.90;;;;;;5028337;28;20503;-60
2023/02/11 10:45:50;;;;;;;1.92;1.15;;;10.00;99.90;;;;;;5010046;28;20059;-60
2023/02/11 10:48:50;;;;;;;4.70;1.88;;;10.00;99.90;;;;;;5006816;28;20070;-61
2023/02/11 10:51:32;;;;;;;8.60;3.92;;;10.00;99.90;;;;;;5025468;28;20104;-59
2023/02/11 10:54:03;;;;;;;7.57;1.58;;;10.10;99.90;;;;;;5008014;28;20042;-59
2023/02/11 10:56:57;;;;;;;4.95;1.55;;;10.10;99.90;;;;;;5026716;28;20120;-59
2023/02/11 10:59:30;;;;;;;4.95;1.65;;;10.10;99.90;;;;;;5008399;28;20089;-60
2023/02/11 11:02:01;;;;;;;3.72;1.10;;;10.20;99.90;;;;;;5026933;28;20140;-59
2023/02/11 11:04:41;;;;;;;6.97;1.30;;;10.10;99.90;;;;;;4994050;28;20495;-59
2023/02/11 11:07:19;;;;;;;7.95;2.47;;;10.10;99.90;;;;;;5027116;28;20582;-60
2023/02/11 11:09:54;;;;;;;9.48;2.53;;;10.20;99.90;;;;;;5009639;28;20136;-60
2023/02/11 11:12:30;;;;;;;6.13;2.15;;;10.20;99.90;;;;;;5006612;28;20084;-59
2023/02/11 11:14:59;;;;;;;6.50;1.65;;;10.20;99.90;;;;;;5025806;28;20056;-60
2023/02/11 11:17:29;;;;;;;8.95;1.63;;;10.30;99.90;;;;;;5026372;28;20045;-59
2023/02/11 11:20:22;;;;;;;6.15;1.60;;;10.30;99.90;;;;;;5027518;28;20053;-59
2023/02/11 11:22:50;;;;;;;3.78;1.35;;;10.30;99.90;;;;;;5024118;28;20048;-59
2023/02/11 11:25:31;;;;;;;8.43;1.73;;;10.40;99.90;;;;;;5009490;28;20455;-59
2023/02/11 11:27:59;;;;;;;10.55;1.83;;;10.40;99.90;;;;;;5024497;28;20049;-60
2023/02/11 11:30:41;;;;;;;4.00;1.40;;;10.40;99.90;;;;;;4672873;28;10000412;-60
2023/02/11 11:33:23;;;;;;;4.93;1.63;;;10.40;99.90;;;;;;4990812;28;20049;-59
2023/02/11 11:36:17;;;;;;;12.40;1.83;;;10.50;99.90;;;;;;5027374;28;20404;-58
2023/02/11 11:39:18;;;;;;;10.70;2.72;;;10.50;99.90;;;;;;5002896;28;20084;-59
2023/02/11 11:42:24;;;;;;;3.92;1.45;;;10.40;99.90;;;;;;5004760;28;20125;-60
2023/02/11 11:44:59;;;;;;;10.98;1.85;;;10.50;99.90;;;;;;5022527;28;20560;-59
2023/02/11 11:47:51;;;;;;;21.23;2.92;;;10.60;99.90;;;;;;5019220;28;20111;-58
2023/02/11 11:50:35;;;;;;;9.85;1.77;;;10.60;99.90;;;;;;5025585;28;20359;-59
2023/02/11 11:53:19;;;;;;;8.90;1.77;;;10.60;99.90;;;;;;5026252;28;20049;-59
2023/02/11 11:55:52;;;;;;;17.85;2.83;;;10.60;99.90;;;;;;4989236;28;20307;-58
2023/02/11 11:58:22;;;;;;;8.38;1.92;;;10.70;99.90;;;;;;5023525;28;20059;-59
2023/02/11 12:01:00;;;;;;;10.85;1.92;;;10.70;99.90;;;;;;5008837;28;20050;-58
2023/02/11 12:04:05;;;;;;;14.68;2.53;;;10.60;99.90;;;;;;5025978;28;20045;-58
2023/02/11 12:06:50;;;;;;;13.13;1.95;;;10.50;99.90;;;;;;5026028;28;20046;-60
2023/02/11 12:09:49;;;;;;;5.82;1.80;;;10.50;99.90;;;;;;5022750;28;20085;-60
2023/02/11 12:12:39;;;;;;;9.23;1.88;;;10.60;99.90;;;;;;4995245;28;20037;-60
2023/02/11 12:15:24;;;;;;;3.55;1.38;;;10.60;99.90;;;;;;5001354;28;20488;-61
2023/02/11 12:18:24;;;;;;;7.53;2.20;;;10.60;99.90;;;;;;5026377;28;20041;-60
2023/02/11 12:21:06;;;;;;;9.23;2.00;;;10.60;99.90;;;;;;5026689;28;20046;-59
2023/02/11 12:23:57;;;;;;;14.32;2.05;;;10.60;99.90;;;;;;5018329;28;20136;-60
2023/02/11 12:26:43;;;;;;;19.02;2.50;;;10.60;99.90;;;;;;5025072;28;20267;-59
2023/02/11 12:29:38;;;;;;;8.30;1.90;;;10.70;99.90;;;;;;5005208;28;20042;-60
2023/02/11 12:32:24;;;;;;;8.00;2.15;;;10.70;99.90;;;;;;5024251;28;20049;-60
2023/02/11 12:34:57;;;;;;;21.42;3.53;;;10.70;99.90;;;;;;5010512;28;20045;-59
2023/02/11 12:37:41;;;;;;;7.60;1.85;;;10.80;99.90;;;;;;5011887;28;20153;-66
2023/02/11 12:40:17;;;;;;;16.00;2.30;;;10.80;99.90;;;;;;5024979;28;20060;-59
2023/02/11 12:43:20;;;;;;;12.73;2.58;;;10.70;99.90;;;;;;5009478;28;20085;-59
2023/02/11 12:45:46;;;;;;;20.45;2.58;;;10.80;99.90;;;;;;5009710;28;20053;-60
2023/02/11 12:48:41;;;;;;;3.80;1.50;;;10.80;99.90;;;;;;5026681;28;20576;-58
2023/02/11 12:51:14;;;;;;;;;;;10.90;99.90;;;;;;5017064;28;20053;-59
2023/02/11 12:53:48;;;;;;;10.05;2.00;;;10.90;99.90;;;;;;5026795;28;20004;-59
2023/02/11 12:56:37;;;;;;;13.07;2.25;;;10.90;99.90;;;;;;4999535;28;20045;-59
2023/02/11 12:59:05;;;;;;;9.20;2.35;;;10.80;99.90;;;;;;5011955;28;20049;-60
2023/02/11 13:01:38;;;;;;;8.55;1.83;;;10.80;99.90;;;;;;4993194;28;20063;-60
2023/02/11 13:04:23;;;;;;;12.18;2.47;;;10.80;99.90;;;;;;5009830;28;20049;-59
2023/02/11 13:06:54;;;;;;;9.05;2.45;;;10.90;99.90;;;;;;4985425;28;20045;-59
2023/02/11 13:09:25;;;;;;;9.60;2.28;;;10.80;99.90;;;;;;4989691;28;20072;-61
2023/02/11 13:11:57;;;;;;;8.55;2.30;;;10.80;99.90;;;;;;4989998;28;20091;-59
2023/02/11 13:14:35;;;;;;;13.43;2.40;;;10.80;99.90;;;;;;5010648;28;20567;-57
2023/02/11 13:17:05;;;;;;;12.95;2.50;;;10.80;99.90;;;;;;5001233;28;20393;-57
2023/02/11 13:19:34;;;;;;;10.88;2.78;;;10.80;99.90;;;;;;4994308;28;20511;-59